createdAt,value
2022-12-17T00:01:06.169Z,40.83
2022-12-17T00:03:53.608Z,43.30
2022-12-17T00:06:45.624Z,41.13
2022-12-17T00:09:33.094Z,41.33
2022-12-17T00:12:24.273Z,40.77
2022-12-17T00:15:09.680Z,41.10
2022-12-17T00:17:55.123Z,44.03
2022-12-17T00:20:43.880Z,43.73
2022-12-17T00:23:29.302Z,45.57
2022-12-17T00:26:15.919Z,43.97
2022-12-17T00:29:02.153Z,37.67
2022-12-17T00:31:48.907Z,41.60
2022-12-17T00:34:34.658Z,43.30
2022-12-17T00:37:21.853Z,41.43
2022-12-17T00:40:07.357Z,41.40
2022-12-17T00:42:52.869Z,49.10
2022-12-17T00:45:42.107Z,47.80
2022-12-17T00:48:27.397Z,43.87
2022-12-17T00:51:17.459Z,42.90
2022-12-17T00:54:05.659Z,43.30
2022-12-17T00:56:47.707Z,44.07
2022-12-17T00:59:36.257Z,37.67
2022-12-17T01:02:21.894Z,40.93
2022-12-17T01:05:07.449Z,44.00
2022-12-17T01:07:52.959Z,40.00
2022-12-17T01:10:43.759Z,40.93
2022-12-17T01:13:31.722Z,38.57
2022-12-17T01:16:22.401Z,39.30
2022-12-17T01:19:08.154Z,40.07
2022-12-17T01:21:53.690Z,39.70
2022-12-17T01:24:39.659Z,38.53
2022-12-17T01:27:27.495Z,40.60
2022-12-17T01:30:13.480Z,37.00
2022-12-17T01:32:59.522Z,39.37
2022-12-17T01:35:45.427Z,38.30
2022-12-17T01:38:31.411Z,36.27
2022-12-17T01:41:16.975Z,33.97
2022-12-17T01:44:00.359Z,46.90
2022-12-17T01:46:51.081Z,39.60
2022-12-17T01:49:39.150Z,38.80
2022-12-17T01:52:25.654Z,38.23
2022-12-17T01:55:11.784Z,40.17
2022-12-17T01:57:57.591Z,40.87
2022-12-17T02:00:44.792Z,43.43
2022-12-17T02:03:33.715Z,40.40
2022-12-17T02:06:26.302Z,39.73
2022-12-17T02:09:26.049Z,40.33
2022-12-17T02:12:21.314Z,40.33
2022-12-17T02:15:12.828Z,41.57
2022-12-17T02:18:05.008Z,46.63
2022-12-17T02:20:57.072Z,37.90
2022-12-17T02:23:56.506Z,35.50
2022-12-17T02:26:54.693Z,37.70
2022-12-17T02:29:42.150Z,42.13
2022-12-17T02:32:29.035Z,40.67
2022-12-17T02:35:15.884Z,38.77
2022-12-17T02:38:05.149Z,38.67
2022-12-17T02:40:52.833Z,34.83
2022-12-17T02:43:45.366Z,40.07
2022-12-17T02:46:33.193Z,37.83
2022-12-17T02:49:22.221Z,36.63
2022-12-17T02:52:08.906Z,38.70
2022-12-17T02:54:54.447Z,43.30
2022-12-17T02:57:43.969Z,36.43
2022-12-17T03:00:36.440Z,38.23
2022-12-17T03:03:22.679Z,36.83
2022-12-17T03:06:08.389Z,43.00
2022-12-17T03:08:54.007Z,36.63
2022-12-17T03:11:39.526Z,35.17
2022-12-17T03:14:25.056Z,39.20
2022-12-17T03:17:12.314Z,36.23
2022-12-17T03:19:58.071Z,36.77
2022-12-17T03:22:43.640Z,34.80
2022-12-17T03:25:30.892Z,36.13
2022-12-17T03:28:22.012Z,33.77
2022-12-17T03:31:07.565Z,35.70
2022-12-17T03:33:54.938Z,40.00
2022-12-17T03:36:40.366Z,37.97
2022-12-17T03:39:26.523Z,34.87
2022-12-17T03:42:12.050Z,35.87
2022-12-17T03:44:57.744Z,36.80
2022-12-17T03:47:43.219Z,40.93
2022-12-17T03:50:30.290Z,35.80
2022-12-17T03:53:15.897Z,40.70
2022-12-17T03:56:01.974Z,37.70
2022-12-17T03:58:47.411Z,35.50
2022-12-17T04:01:33.155Z,34.10
2022-12-17T04:04:19.116Z,31.30
2022-12-17T04:07:06.245Z,37.50
2022-12-17T04:09:52.497Z,35.30
2022-12-17T04:12:38.370Z,33.07
2022-12-17T04:15:25.131Z,31.50
2022-12-17T04:18:10.986Z,35.70
2022-12-17T04:20:57.052Z,37.03
2022-12-17T04:23:43.807Z,34.83
2022-12-17T04:26:32.823Z,34.87
2022-12-17T04:29:18.220Z,35.53
2022-12-17T04:32:03.721Z,34.67
2022-12-17T04:34:52.528Z,32.90
2022-12-17T04:37:44.688Z,36.60
2022-12-17T04:40:32.746Z,35.30
2022-12-17T04:43:27.739Z,37.77
2022-12-17T04:46:13.469Z,39.63
2022-12-17T04:49:01.829Z,32.63
2022-12-17T04:51:50.961Z,35.17
2022-12-17T04:54:35.906Z,56.80
2022-12-17T04:57:22.764Z,66.57
2022-12-17T05:00:15.215Z,77.93
2022-12-17T05:03:01.422Z,85.27
2022-12-17T05:05:47.049Z,55.50
2022-12-17T05:08:35.684Z,40.33
2022-12-17T05:11:28.158Z,38.03
2022-12-17T05:14:20.323Z,32.60
2022-12-17T05:17:09.304Z,35.57
2022-12-17T05:19:59.436Z,30.20
2022-12-17T05:22:45.485Z,27.17
2022-12-17T05:25:30.994Z,29.70
2022-12-17T05:28:20.924Z,28.60
2022-12-17T05:31:12.791Z,26.03
2022-12-17T05:33:58.864Z,25.43
2022-12-17T05:36:50.675Z,26.50
2022-12-17T05:39:39.725Z,24.13
2022-12-17T05:42:25.614Z,24.37
2022-12-17T05:45:14.206Z,26.13
2022-12-17T05:48:04.475Z,27.87
2022-12-17T05:51:01.492Z,26.83
2022-12-17T05:53:50.223Z,27.53
2022-12-17T05:56:36.019Z,75.30
2022-12-17T05:59:24.166Z,69.90
2022-12-17T06:02:10.037Z,40.70
2022-12-17T06:05:02.378Z,33.70
2022-12-17T06:07:48.607Z,30.10
2022-12-17T06:10:37.914Z,28.00
2022-12-17T06:13:25.110Z,26.23
2022-12-17T06:16:13.967Z,26.57
2022-12-17T06:18:59.686Z,27.33
2022-12-17T06:21:47.900Z,24.73
2022-12-17T06:24:44.142Z,29.43
2022-12-17T06:27:31.210Z,26.07
2022-12-17T06:30:18.805Z,25.00
2022-12-17T06:33:10.709Z,26.50
2022-12-17T06:35:58.545Z,25.13
2022-12-17T06:38:48.893Z,29.30
2022-12-17T06:41:33.540Z,26.27
2022-12-17T06:44:19.339Z,29.73
2022-12-17T06:47:04.832Z,29.13
2022-12-17T06:49:50.527Z,71.63
2022-12-17T06:52:36.143Z,61.40
2022-12-17T06:55:23.266Z,41.73
2022-12-17T06:58:14.780Z,33.20
2022-12-17T07:01:01.060Z,32.00
2022-12-17T07:03:46.569Z,28.20
2022-12-17T07:06:31.961Z,26.77
2022-12-17T07:09:17.397Z,27.07
2022-12-17T07:12:04.600Z,26.30
2022-12-17T07:14:50.108Z,27.80
2022-12-17T07:17:35.743Z,29.60
2022-12-17T07:20:21.667Z,31.90
2022-12-17T07:23:07.232Z,27.57
2022-12-17T07:25:52.948Z,26.27
2022-12-17T07:28:40.783Z,26.40
2022-12-17T07:31:26.207Z,25.30
2022-12-17T07:34:14.367Z,26.70
2022-12-17T07:37:00.073Z,24.43
2022-12-17T07:39:46.053Z,25.57
2022-12-17T07:42:31.509Z,27.50
2022-12-17T07:45:18.429Z,31.37
2022-12-17T07:48:10.524Z,27.57
2022-12-17T07:50:56.008Z,28.40
2022-12-17T07:53:41.477Z,25.80
2022-12-17T07:56:27.353Z,28.03
2022-12-17T07:59:13.464Z,26.80
2022-12-17T08:02:03.141Z,29.47
2022-12-17T08:04:49.013Z,47.73
2022-12-17T08:07:34.515Z,116.87
2022-12-17T08:10:20.397Z,67.27
2022-12-17T08:13:14.396Z,43.03
2022-12-17T08:16:00.173Z,34.63
2022-12-17T08:18:47.350Z,27.13
2022-12-17T08:21:33.279Z,27.93
2022-12-17T08:24:19.228Z,26.37
2022-12-17T08:27:04.893Z,27.60
2022-12-17T08:29:50.315Z,28.50
2022-12-17T08:32:38.672Z,25.20
2022-12-17T08:35:26.697Z,27.67
2022-12-17T08:38:12.408Z,32.17
2022-12-17T08:40:57.876Z,31.30
2022-12-17T08:43:43.868Z,33.40
2022-12-17T08:46:29.466Z,31.87
2022-12-17T08:49:15.875Z,29.70
2022-12-17T08:52:02.893Z,36.47
2022-12-17T08:54:48.414Z,33.77
2022-12-17T08:57:34.365Z,33.27
2022-12-17T09:00:20.144Z,30.30
2022-12-17T09:03:14.100Z,31.23
2022-12-17T09:06:05.537Z,33.20
2022-12-17T09:09:07.229Z,30.87
2022-12-17T09:11:53.470Z,32.20
2022-12-17T09:14:39.440Z,32.80
2022-12-17T09:17:25.289Z,24.87
2022-12-17T09:20:10.833Z,29.63
2022-12-17T09:22:56.894Z,29.70
2022-12-17T09:25:58.506Z,29.67
2022-12-17T09:28:44.634Z,33.90
2022-12-17T09:31:26.679Z,30.60
2022-12-17T09:34:12.436Z,31.53
2022-12-17T09:36:58.528Z,33.90
2022-12-17T09:39:44.144Z,32.73
2022-12-17T09:42:37.859Z,36.47
2022-12-17T09:45:31.398Z,35.93
2022-12-17T09:48:25.855Z,33.10
2022-12-17T09:51:15.037Z,31.70
2022-12-17T09:54:03.761Z,28.77
2022-12-17T09:56:51.117Z,29.03
2022-12-17T09:59:41.626Z,27.60
2022-12-17T10:02:32.166Z,29.20
2022-12-17T10:05:21.119Z,27.80
2022-12-17T10:08:09.167Z,29.67
2022-12-17T10:10:59.469Z,31.43
2022-12-17T10:13:45.142Z,28.00
2022-12-17T10:16:44.722Z,40.40
2022-12-17T10:19:33.700Z,34.43
2022-12-17T10:22:27.471Z,31.50
2022-12-17T10:25:24.300Z,35.67
2022-12-17T10:28:09.893Z,35.63
2022-12-17T10:30:55.552Z,36.23
2022-12-17T10:33:45.963Z,35.10
2022-12-17T10:36:41.430Z,100.37
2022-12-17T10:39:33.802Z,111.40
2022-12-17T10:42:19.438Z,60.60
2022-12-17T10:45:05.453Z,48.60
2022-12-17T10:47:52.723Z,36.70
2022-12-17T10:50:42.501Z,36.47
2022-12-17T10:53:37.746Z,39.70
2022-12-17T10:56:24.564Z,39.83
2022-12-17T10:59:12.862Z,36.90
2022-12-17T11:02:00.411Z,37.30
2022-12-17T11:04:47.415Z,37.40
2022-12-17T11:07:39.978Z,33.93
2022-12-17T11:10:33.955Z,39.77
2022-12-17T11:13:23.787Z,39.63
2022-12-17T11:16:12.309Z,33.40
2022-12-17T11:19:05.444Z,34.50
2022-12-17T11:21:55.194Z,35.33
2022-12-17T11:24:46.720Z,33.43
2022-12-17T11:27:38.418Z,34.20
2022-12-17T11:30:31.046Z,34.20
2022-12-17T11:33:27.945Z,35.13
2022-12-17T11:36:25.809Z,32.70
2022-12-17T11:39:23.266Z,35.03
2022-12-17T11:42:18.445Z,43.07
2022-12-17T11:45:12.379Z,34.53
2022-12-17T11:48:04.619Z,31.83
2022-12-17T11:50:57.708Z,33.27
2022-12-17T11:54:07.324Z,33.77
2022-12-17T11:56:59.187Z,33.33
2022-12-17T11:59:55.906Z,32.47
2022-12-17T12:03:02.561Z,31.50
2022-12-17T12:06:00.420Z,29.57
2022-12-17T12:08:48.096Z,31.60
2022-12-17T12:11:45.659Z,60.50
2022-12-17T12:14:41.788Z,62.17
2022-12-17T12:17:42.024Z,45.10
2022-12-17T12:20:44.121Z,41.37
2022-12-17T12:23:37.437Z,32.57
2022-12-17T12:26:33.427Z,32.93
2022-12-17T12:29:31.033Z,30.20
2022-12-17T12:32:26.537Z,27.23
2022-12-17T12:35:20.017Z,27.03
2022-12-17T12:38:06.162Z,28.93
2022-12-17T12:40:59.173Z,24.07
2022-12-17T12:43:48.684Z,29.03
2022-12-17T12:46:39.631Z,28.57
2022-12-17T12:49:35.101Z,25.10
2022-12-17T12:52:19.011Z,26.50
2022-12-17T12:55:12.254Z,25.37
2022-12-17T12:58:02.184Z,27.43
2022-12-17T13:00:56.371Z,26.30
2022-12-17T13:03:48.781Z,23.97
2022-12-17T13:06:45.091Z,26.17
2022-12-17T13:09:35.046Z,25.50
2022-12-17T13:12:23.585Z,24.10
2022-12-17T13:14:57.534Z,27.37
2022-12-17T13:17:34.438Z,25.57
2022-12-17T13:20:20.417Z,27.00
2022-12-17T13:22:53.523Z,24.13
2022-12-17T13:25:24.556Z,27.83
2022-12-17T13:27:52.773Z,22.57
2022-12-17T13:30:33.766Z,23.07
2022-12-17T13:33:18.667Z,20.70
2022-12-17T13:35:54.906Z,21.23
2022-12-17T13:38:32.038Z,19.70
2022-12-17T13:41:10.441Z,20.90
2022-12-17T13:43:43.728Z,21.47
2022-12-17T13:46:22.971Z,20.90
2022-12-17T13:48:58.891Z,21.17
2022-12-17T13:51:29.032Z,23.40
2022-12-17T13:53:58.980Z,20.63
2022-12-17T13:56:31.460Z,21.03
2022-12-17T13:59:08.383Z,20.57
2022-12-17T14:01:46.515Z,19.20
2022-12-17T14:04:22.912Z,21.80
2022-12-17T14:06:52.912Z,18.83
2022-12-17T14:09:23.783Z,24.30
2022-12-17T14:12:11.233Z,19.00
2022-12-17T14:14:41.691Z,20.13
2022-12-17T14:17:18.418Z,19.27
2022-12-17T14:19:47.299Z,17.70
2022-12-17T14:22:20.235Z,18.43
2022-12-17T14:24:48.571Z,21.77
2022-12-17T14:27:27.037Z,19.53
2022-12-17T14:29:56.990Z,19.50
2022-12-17T14:32:32.895Z,20.50
2022-12-17T14:35:01.327Z,17.00
2022-12-17T14:37:31.456Z,21.20
2022-12-17T14:40:03.912Z,18.97
2022-12-17T14:42:37.637Z,17.43
2022-12-17T14:45:09.097Z,17.10
2022-12-17T14:47:38.697Z,21.27
2022-12-17T14:50:09.826Z,22.90
2022-12-17T14:52:41.595Z,18.77
2022-12-17T14:55:37.606Z,24.60
2022-12-17T14:58:20.302Z,18.83
2022-12-17T15:00:51.842Z,20.53
2022-12-17T15:03:23.541Z,21.60
2022-12-17T15:05:54.659Z,20.57
2022-12-17T15:08:23.452Z,22.67
2022-12-17T15:10:51.787Z,23.90
2022-12-17T15:13:21.753Z,19.30
2022-12-17T15:15:49.911Z,20.57
2022-12-17T15:18:18.129Z,20.40
2022-12-17T15:20:46.739Z,18.50
2022-12-17T15:23:18.726Z,18.00
2022-12-17T15:25:49.288Z,23.00
2022-12-17T15:28:19.392Z,23.33
2022-12-17T15:30:50.287Z,60.20
2022-12-17T15:33:18.565Z,53.00
2022-12-17T15:35:46.722Z,38.50
2022-12-17T15:38:14.979Z,29.30
2022-12-17T15:40:43.172Z,21.90
2022-12-17T15:43:11.117Z,28.63
2022-12-17T15:45:40.400Z,22.90
2022-12-17T15:48:11.333Z,26.90
2022-12-17T15:50:40.855Z,25.87
2022-12-17T15:53:09.466Z,24.40
2022-12-17T15:55:38.440Z,27.43
2022-12-17T15:58:07.598Z,26.40
2022-12-17T16:00:36.189Z,27.20
2022-12-17T16:03:04.722Z,28.90
2022-12-17T16:05:36.325Z,29.67
2022-12-17T16:08:04.602Z,25.70
2022-12-17T16:10:32.728Z,27.60
2022-12-17T16:13:00.869Z,28.00
2022-12-17T16:15:28.995Z,26.07
2022-12-17T16:17:57.356Z,26.23
2022-12-17T16:20:25.992Z,22.73
2022-12-17T16:22:55.502Z,25.17
2022-12-17T16:25:23.764Z,24.07
2022-12-17T16:27:51.974Z,28.10
2022-12-17T16:30:20.938Z,31.17
2022-12-17T16:32:49.223Z,27.87
2022-12-17T16:35:17.559Z,27.70
2022-12-17T16:37:45.822Z,30.20
2022-12-17T16:40:15.565Z,29.20
2022-12-17T16:42:43.667Z,33.53
2022-12-17T16:45:12.185Z,42.27
2022-12-17T16:47:40.360Z,50.40
2022-12-17T16:50:08.892Z,43.87
2022-12-17T16:52:37.332Z,35.17
2022-12-17T16:55:05.959Z,35.83
2022-12-17T16:57:35.690Z,29.63
2022-12-17T17:00:04.464Z,47.27
2022-12-17T17:02:32.866Z,52.50
2022-12-17T17:05:01.180Z,35.63
2022-12-17T17:07:29.354Z,33.70
2022-12-17T17:09:57.660Z,27.03
2022-12-17T17:12:26.967Z,29.13
2022-12-17T17:14:56.721Z,23.53
2022-12-17T17:17:55.677Z,22.00
2022-12-17T17:20:14.495Z,22.60
2022-12-17T17:22:43.060Z,23.90
2022-12-17T17:25:11.254Z,24.20
2022-12-17T17:27:39.642Z,24.93
2022-12-17T17:30:10.645Z,26.13
2022-12-17T17:32:39.373Z,25.70
2022-12-17T17:35:08.326Z,22.07
2022-12-17T17:37:39.106Z,20.97
2022-12-17T17:40:08.621Z,24.27
2022-12-17T17:42:36.859Z,25.40
2022-12-17T17:45:06.535Z,22.50
2022-12-17T17:47:37.576Z,21.60
2022-12-17T17:50:06.624Z,22.17
2022-12-17T17:52:34.912Z,19.70
2022-12-17T17:55:03.270Z,26.23
2022-12-17T17:57:31.463Z,29.53
2022-12-17T17:59:59.691Z,25.63
2022-12-17T18:02:27.915Z,23.30
2022-12-17T18:04:57.592Z,23.10
2022-12-17T18:07:26.960Z,21.73
2022-12-17T18:09:55.953Z,23.63
2022-12-17T18:12:41.448Z,21.47
2022-12-17T18:15:15.445Z,20.73
2022-12-17T18:17:45.896Z,22.67
2022-12-17T18:20:15.717Z,36.77
2022-12-17T18:22:46.080Z,54.30
2022-12-17T18:25:16.174Z,35.70
2022-12-17T18:27:44.677Z,25.43
2022-12-17T18:30:13.463Z,23.90
2022-12-17T18:32:42.950Z,19.93
2022-12-17T18:35:11.468Z,21.70
2022-12-17T18:37:41.212Z,22.53
2022-12-17T18:40:10.661Z,21.33
2022-12-17T18:42:59.198Z,20.80
2022-12-17T18:45:27.429Z,20.90
2022-12-17T18:47:55.716Z,17.87
2022-12-17T18:50:23.891Z,20.60
2022-12-17T18:52:53.379Z,19.80
2022-12-17T18:55:21.573Z,20.57
2022-12-17T18:57:49.757Z,19.77
2022-12-17T19:00:18.245Z,20.30
2022-12-17T19:02:46.476Z,21.13
2022-12-17T19:05:14.765Z,19.43
2022-12-17T19:07:42.882Z,22.93
2022-12-17T19:10:12.707Z,19.60
2022-12-17T19:12:40.925Z,23.30
2022-12-17T19:15:10.216Z,21.03
2022-12-17T19:17:38.729Z,24.53
2022-12-17T19:20:07.839Z,23.40
2022-12-17T19:22:36.001Z,22.20
2022-12-17T19:25:04.361Z,19.83
2022-12-17T19:27:33.909Z,18.80
2022-12-17T19:30:02.100Z,18.10
2022-12-17T19:32:30.209Z,19.33
2022-12-17T19:34:58.397Z,19.80
2022-12-17T19:37:26.560Z,19.60
2022-12-17T19:39:54.719Z,20.00
2022-12-17T19:42:25.636Z,16.97
2022-12-17T19:44:56.625Z,20.40
2022-12-17T19:47:25.237Z,19.33
2022-12-17T19:49:53.399Z,20.03
2022-12-17T19:52:21.599Z,19.57
2022-12-17T19:54:50.531Z,17.77
2022-12-17T19:57:21.787Z,18.70
2022-12-17T19:59:50.136Z,18.53
2022-12-17T20:02:20.561Z,22.33
2022-12-17T20:04:48.996Z,18.63
2022-12-17T20:07:17.220Z,22.60
2022-12-17T20:09:45.665Z,19.47
2022-12-17T20:12:13.947Z,20.37
2022-12-17T20:14:42.329Z,22.70
2022-12-17T20:17:10.961Z,24.03
2022-12-17T20:19:43.647Z,27.57
2022-12-17T20:22:12.086Z,20.47
2022-12-17T20:24:42.648Z,22.17
2022-12-17T20:27:10.935Z,18.93
2022-12-17T20:29:39.310Z,17.83
2022-12-17T20:32:07.614Z,18.97
2022-12-17T20:34:35.988Z,18.57
2022-12-17T20:37:05.682Z,16.83
2022-12-17T20:39:33.922Z,16.80
2022-12-17T20:42:02.308Z,16.57
2022-12-17T20:44:30.665Z,19.23
2022-12-17T20:46:59.049Z,17.20
2022-12-17T20:49:48.352Z,17.83
2022-12-17T20:52:20.197Z,17.63
2022-12-17T20:54:51.523Z,18.13
2022-12-17T20:57:20.243Z,19.33
2022-12-17T20:59:59.613Z,17.40
2022-12-17T21:02:28.003Z,15.33
2022-12-17T21:04:56.370Z,17.90
2022-12-17T21:07:28.987Z,18.73
2022-12-17T21:09:57.427Z,14.73
2022-12-17T21:12:51.210Z,17.20
2022-12-17T21:15:19.525Z,17.77
2022-12-17T21:17:47.922Z,22.90
2022-12-17T21:20:21.031Z,17.73
2022-12-17T21:22:52.714Z,18.03
2022-12-17T21:25:24.110Z,17.50
2022-12-17T21:27:55.164Z,17.40
2022-12-17T21:30:24.516Z,16.67
2022-12-17T21:32:52.835Z,14.53
2022-12-17T21:35:26.345Z,15.90
2022-12-17T21:37:59.461Z,20.40
2022-12-17T21:40:28.704Z,16.60
2022-12-17T21:43:05.872Z,16.63
2022-12-17T21:45:45.491Z,14.07
2022-12-17T21:48:16.921Z,14.83
2022-12-17T21:50:46.484Z,15.70
2022-12-17T21:53:16.870Z,16.20
2022-12-17T21:55:45.611Z,16.10
2022-12-17T21:58:15.383Z,17.80
2022-12-17T22:00:45.666Z,17.30
2022-12-17T22:03:13.860Z,18.33
2022-12-17T22:05:44.364Z,15.40
2022-12-17T22:08:13.310Z,15.13
2022-12-17T22:10:51.895Z,15.50
2022-12-17T22:13:38.258Z,14.87
2022-12-17T22:16:07.582Z,14.67
2022-12-17T22:18:35.982Z,15.77
2022-12-17T22:21:04.441Z,17.60
2022-12-17T22:23:32.901Z,15.67
2022-12-17T22:26:02.805Z,13.00
2022-12-17T22:28:30.942Z,15.20
2022-12-17T22:31:23.092Z,16.47
2022-12-17T22:34:32.175Z,17.83
2022-12-17T22:39:44.858Z,16.60
2022-12-17T22:44:28.701Z,13.80
2022-12-17T22:44:35.261Z,14.70
2022-12-17T22:45:25.917Z,15.47
2022-12-17T22:47:54.231Z,15.90
2022-12-17T22:50:27.652Z,14.27
2022-12-17T22:53:03.282Z,19.13
2022-12-17T22:55:32.027Z,15.30
2022-12-17T22:58:02.179Z,13.90
2022-12-17T23:00:33.028Z,14.40
2022-12-17T23:03:01.928Z,12.53
2022-12-17T23:05:31.722Z,16.57
2022-12-17T23:08:00.583Z,15.20
2022-12-17T23:10:29.501Z,15.53
2022-12-17T23:12:57.810Z,12.23
2022-12-17T23:15:30.586Z,10.87
2022-12-17T23:18:00.633Z,15.77
2022-12-17T23:20:31.425Z,12.20
2022-12-17T23:23:00.498Z,12.90
2022-12-17T23:25:29.969Z,13.57
2022-12-17T23:27:58.244Z,14.40
2022-12-17T23:30:27.827Z,13.70
2022-12-17T23:32:56.035Z,11.70
2022-12-17T23:35:24.187Z,11.57
2022-12-17T23:37:52.578Z,13.03
2022-12-17T23:40:21.205Z,11.73
2022-12-17T23:42:49.489Z,13.53
2022-12-17T23:45:17.782Z,14.47
2022-12-17T23:47:48.240Z,12.13
2022-12-17T23:50:16.450Z,13.17
2022-12-17T23:52:44.666Z,13.07
2022-12-17T23:55:12.867Z,11.63
2022-12-17T23:57:41.126Z,15.27
